Time;durP1;ratioP1;P1;durP2;ratioP2;P2;SDS_P1;SDS_P2;PMS_P1;PMS_P2;Temp;Humidity;BMP_temperature;BMP_pressure;BME280_temperature;BME280_humidity;BME280_pressure;Samples;Min_cycle;Max_cycle;Signal;HPM_P1;HPM_P2
2022/05/21 00:00:28;;;;;;;;;;;;;;;-140.72;100.00;52711.47;4980049;28;20289;-68
2022/05/21 00:02:54;;;;;;;;;;;;;;;-140.72;100.00;52674.94;4996644;28;19924;-68
2022/05/21 00:05:21;;;;;;;;;;;;;;;-140.72;100.00;52703.34;4978750;28;19944;-69
2022/05/21 00:07:46;;;;;;;;;;;;;;;-140.72;100.00;52699.31;4978633;28;19974;-67
2022/05/21 00:10:14;;;;;;;;;;;;;;;-140.72;100.00;52693.22;4975368;28;20008;-67
2022/05/21 00:12:41;;;;;;;;;;;;;;;-140.72;100.00;52705.38;4969232;28;19973;-67
2022/05/21 00:15:06;;;;;;;;;;;;;;;-140.72;100.00;52689.16;4984856;28;19928;-67
2022/05/21 00:17:31;;;;;;;;;;;;;;;-140.72;100.00;52687.13;4977079;28;19918;-67
2022/05/21 00:19:57;;;;;;;;;;;;;;;-140.72;100.00;52687.13;4959638;28;20384;-68
2022/05/21 00:22:22;;;;;;;;;;;;;;;-140.72;100.00;52699.31;4976721;28;19918;-67
2022/05/21 00:24:47;;;;;;;;;;;;;;;-140.72;100.00;52695.25;4976949;28;19926;-67
2022/05/21 00:27:12;;;;;;;;;;;;;;;-140.72;100.00;52707.41;4980000;28;19925;-67
2022/05/21 00:29:38;;;;;;;;;;;;;;;-140.72;100.00;52693.22;4996342;28;20017;-66
2022/05/21 00:32:03;;;;;;;;;;;;;;;-140.72;100.00;52729.75;4996173;28;19917;-66
2022/05/21 00:34:29;;;;;;;;;;;;;;;-140.72;100.00;52676.97;4995595;28;19976;-67
2022/05/21 00:36:55;;;;;;;;;;;;;;;-140.72;100.00;52695.25;4995527;28;19996;-67
2022/05/21 00:39:20;;;;;;;;;;;;;;;-140.72;100.00;52723.66;4995884;28;19997;-67
2022/05/21 00:41:45;;;;;;;;;;;;;;;-140.72;100.00;52670.88;4995999;28;19918;-67
2022/05/21 00:44:10;;;;;;;;;;;;;;;-140.72;100.00;52685.09;4995735;28;19917;-67
2022/05/21 00:46:38;;;;;;;;;;;;;;;-140.72;100.00;52691.19;4995950;28;19918;-68
2022/05/21 00:49:20;;;;;;;;;;;;;;;-140.72;100.00;52638.41;4978534;28;19926;-69
2022/05/21 00:51:50;;;;;;;;;;;;;;;-140.72;100.00;52666.84;4996335;28;19918;-68
2022/05/21 00:54:16;;;;;;;;;;;;;;;-140.72;100.00;52699.31;4977996;28;20005;-69
2022/05/21 00:56:46;;;;;;;;;;;;;;;-140.72;100.00;52679.00;4994972;28;20056;-68
2022/05/21 01:01:57;;;;;;;;;;;;;;;-140.72;100.00;52640.44;4995715;28;20021;-68
2022/05/21 01:04:24;;;;;;;;;;;;;;;-140.72;100.00;52697.28;4994461;28;20234;-68
2022/05/21 01:06:49;;;;;;;;;;;;;;;-140.72;100.00;52715.53;4994301;28;20235;-68
2022/05/21 01:09:15;;;;;;;;;;;;;;;-140.72;100.00;52703.34;4994154;28;19968;-68
2022/05/21 01:11:40;;;;;;;;;;;;;;;-140.72;100.00;52721.63;4994368;28;20276;-68
2022/05/21 01:14:08;;;;;;;;;;;;;;;-140.72;100.00;52725.69;4994367;28;19918;-68
2022/05/21 01:16:34;;;;;;;;;;;;;;;-140.72;100.00;52719.59;4995621;28;19956;-68
2022/05/21 01:19:03;;;;;;;;;;;;;;;-140.72;100.00;52727.72;4996029;28;19918;-68
2022/05/21 01:21:28;;;;;;;;;;;;;;;-140.72;100.00;52691.19;4995134;28;19917;-67
2022/05/21 01:23:53;;;;;;;;;;;;;;;-140.72;100.00;52691.19;4994481;28;19941;-67
2022/05/21 01:26:20;;;;;;;;;;;;;;;-140.72;100.00;52703.34;4995767;28;19926;-67
2022/05/21 01:28:46;;;;;;;;;;;;;;;-140.72;100.00;52731.75;4977643;28;19917;-67
2022/05/21 01:31:11;;;;;;;;;;;;;;;-140.72;100.00;52693.22;4983197;28;19919;-68
2022/05/21 01:33:38;;;;;;;;;;;;;;;-140.72;100.00;52695.25;4976937;28;19918;-68
2022/05/21 01:36:06;;;;;;;;;;;;;;;-140.72;100.00;52707.41;4995307;28;20369;-67
2022/05/21 01:38:31;;;;;;;;;;;;;;;-140.72;100.00;52715.53;4995384;28;19969;-68
2022/05/21 01:40:57;;;;;;;;;;;;;;;-140.72;100.00;52672.91;4977598;28;19918;-68
2022/05/21 01:46:06;;;;;;;;;;;;;;;-140.72;100.00;52687.13;4988871;28;20012;-68
2022/05/21 01:48:32;;;;;;;;;;;;;;;-140.72;100.00;52691.19;4977926;28;19961;-67
2022/05/21 01:50:58;;;;;;;;;;;;;;;-140.72;100.00;52699.31;4995010;28;20416;-68
2022/05/21 01:53:24;;;;;;;;;;;;;;;-140.72;100.00;52685.09;4994684;28;19925;-69
2022/05/21 01:55:50;;;;;;;;;;;;;;;-140.72;100.00;52729.75;4977404;28;19917;-67
2022/05/21 01:58:15;;;;;;;;;;;;;;;-140.72;100.00;52709.44;4994826;28;19922;-68
2022/05/21 02:00:42;;;;;;;;;;;;;;;-140.72;100.00;52672.91;4995041;28;20381;-68
2022/05/21 02:03:08;;;;;;;;;;;;;;;-140.72;100.00;52719.59;4976858;28;20009;-67
2022/05/21 02:05:33;;;;;;;;;;;;;;;-140.72;100.00;52731.75;4994715;28;19968;-67
2022/05/21 02:07:58;;;;;;;;;;;;;;;-140.72;100.00;52703.34;4994081;28;19918;-67
2022/05/21 02:10:23;;;;;;;;;;;;;;;-140.72;100.00;52699.31;4977508;28;19917;-68
2022/05/21 02:12:49;;;;;;;;;;;;;;;-140.72;100.00;52674.94;4994457;28;20012;-68
2022/05/21 02:15:14;;;;;;;;;;;;;;;-140.72;100.00;52719.59;4994783;28;20008;-67
2022/05/21 02:17:39;;;;;;;;;;;;;;;-140.72;100.00;52709.44;4977769;28;19922;-68
2022/05/21 02:20:05;;;;;;;;;;;;;;;-140.72;100.00;52717.56;4994760;28;20044;-68
2022/05/21 02:22:30;;;;;;;;;;;;;;;-140.72;100.00;52672.91;4994245;28;19980;-68
2022/05/21 02:24:56;;;;;;;;;;;;;;;-140.72;100.00;52715.53;4977307;28;20416;-67
2022/05/21 02:27:27;;;;;;;;;;;;;;;-140.72;100.00;52699.31;4993627;28;19968;-67
2022/05/21 02:29:52;;;;;;;;;;;;;;;-140.72;100.00;52752.06;4976863;28;19918;-68
2022/05/21 02:32:18;;;;;;;;;;;;;;;-140.72;100.00;52741.91;4994383;28;19917;-68
2022/05/21 02:34:44;;;;;;;;;;;;;;;-140.72;100.00;52695.25;4994783;28;20187;-68
2022/05/21 02:39:53;;;;;;;;;;;;;;;-140.72;100.00;52750.03;4998416;28;20372;-68
2022/05/21 02:45:03;;;;;;;;;;;;;;;-140.72;100.00;52766.25;4998320;28;19984;-68
2022/05/21 02:47:29;;;;;;;;;;;;;;;-140.72;100.00;52748.00;4997926;28;20001;-68
2022/05/21 02:49:54;;;;;;;;;;;;;;;-140.72;100.00;52743.94;4998119;28;20438;-67
2022/05/21 02:52:19;;;;;;;;;;;;;;;-140.72;100.00;52685.09;4998209;28;20017;-67
2022/05/21 02:54:44;;;;;;;;;;;;;;;-140.72;100.00;52735.81;4997916;28;19917;-68
2022/05/21 02:57:10;;;;;;;;;;;;;;;-140.72;100.00;52691.19;4997479;28;19957;-68
2022/05/21 02:59:36;;;;;;;;;;;;;;;-140.72;100.00;52699.31;4997967;28;19918;-68
2022/05/21 03:02:01;;;;;;;;;;;;;;;-140.72;100.00;52735.81;4979695;28;19925;-68
2022/05/21 03:04:27;;;;;;;;;;;;;;;-140.72;100.00;52685.09;4997737;28;19968;-68
2022/05/21 03:06:53;;;;;;;;;;;;;;;-140.72;100.00;52760.19;4997683;28;20468;-67
2022/05/21 03:12:01;;;;;;;;;;;;;;;-140.72;100.00;52760.19;4997439;28;19929;-68
2022/05/21 03:14:27;;;;;;;;;;;;;;;-140.72;100.00;52739.88;4980192;28;19917;-68
2022/05/21 03:16:59;;;;;;;;;;;;;;;-140.72;100.00;52725.69;4998228;28;20008;-68
2022/05/21 03:19:24;;;;;;;;;;;;;;;-140.72;100.00;52713.50;4997834;28;19918;-68
2022/05/21 03:21:49;;;;;;;;;;;;;;;-140.72;100.00;52772.34;4980244;28;19928;-67
2022/05/21 03:24:14;;;;;;;;;;;;;;;-140.72;100.00;52713.50;4997357;28;19918;-68
2022/05/21 03:26:40;;;;;;;;;;;;;;;-140.72;100.00;52752.06;4979880;28;20274;-68
2022/05/21 03:29:05;;;;;;;;;;;;;;;-140.72;100.00;52733.78;4979945;28;19917;-68
2022/05/21 03:31:30;;;;;;;;;;;;;;;-140.72;100.00;52739.88;4997570;28;19918;-67
2022/05/21 03:33:56;;;;;;;;;;;;;;;-140.72;100.00;52715.53;4997081;28;20387;-68
2022/05/21 03:36:21;;;;;;;;;;;;;;;-140.72;100.00;52745.97;4997420;28;19924;-67
2022/05/21 03:38:46;;;;;;;;;;;;;;;-140.72;100.00;52733.78;4997008;28;20289;-67
2022/05/21 03:41:11;;;;;;;;;;;;;;;-140.72;100.00;52674.94;4997007;28;20310;-68
2022/05/21 03:43:37;;;;;;;;;;;;;;;-140.72;100.00;52743.94;4996842;28;19976;-67
2022/05/21 03:46:03;;;;;;;;;;;;;;;-140.72;100.00;52707.41;4995778;28;19917;-67
2022/05/21 03:48:28;;;;;;;;;;;;;;;-140.72;100.00;52721.63;4997507;28;19917;-67
2022/05/21 03:50:53;;;;;;;;;;;;;;;-140.72;100.00;52717.56;4979248;28;19971;-67
2022/05/21 03:53:18;;;;;;;;;;;;;;;-140.72;100.00;52721.63;4979359;28;19924;-67
2022/05/21 03:55:44;;;;;;;;;;;;;;;-140.72;100.00;52750.03;4997287;28;19941;-67
2022/05/21 03:58:09;;;;;;;;;;;;;;;-140.72;100.00;52772.34;4979204;28;19921;-68
2022/05/21 04:00:37;;;;;;;;;;;;;;;-140.72;100.00;52731.75;4996650;28;20357;-66
2022/05/21 04:03:02;;;;;;;;;;;;;;;-140.72;100.00;52739.88;4997250;28;19964;-67
2022/05/21 04:05:27;;;;;;;;;;;;;;;-140.72;100.00;52760.19;4979503;28;19918;-67
2022/05/21 04:07:52;;;;;;;;;;;;;;;-140.72;100.00;52756.13;4996599;28;19925;-68
2022/05/21 04:10:18;;;;;;;;;;;;;;;-140.72;100.00;52748.00;4997087;28;19917;-68
2022/05/21 04:12:43;;;;;;;;;;;;;;;-140.72;100.00;52756.13;4996506;28;19918;-66
2022/05/21 04:15:09;;;;;;;;;;;;;;;-140.72;100.00;52723.66;4996661;28;20023;-67
2022/05/21 04:17:35;;;;;;;;;;;;;;;-140.72;100.00;52729.75;4996742;28;19918;-67
2022/05/21 04:20:01;;;;;;;;;;;;;;;-140.72;100.00;52731.75;4996447;28;19918;-68
2022/05/21 04:22:26;;;;;;;;;;;;;;;-140.72;100.00;52735.81;4996380;28;20350;-67
2022/05/21 04:24:51;;;;;;;;;;;;;;;-140.72;100.00;52727.72;4996206;28;19925;-67
2022/05/21 04:27:16;;;;;;;;;;;;;;;-140.72;100.00;52737.84;4996005;28;19925;-67
2022/05/21 04:29:42;;;;;;;;;;;;;;;-140.72;100.00;52745.97;4996259;28;19972;-68
2022/05/21 04:32:07;;;;;;;;;;;;;;;-140.72;100.00;52748.00;4995924;28;19996;-67
2022/05/21 04:34:32;;;;;;;;;;;;;;;-140.72;100.00;52731.75;4997003;28;20020;-69
2022/05/21 04:36:57;;;;;;;;;;;;;;;-140.72;100.00;52727.72;4966323;28;19957;-70
2022/05/21 04:39:23;;;;;;;;;;;;;;;-140.72;100.00;52715.53;4958917;28;20013;-71
2022/05/21 04:42:00;;;;;;;;;;;;;;;-140.72;100.00;52723.66;4976652;28;20008;-71
2022/05/21 04:44:30;;;;;;;;;;;;;;;-140.72;100.00;52676.97;4976411;28;19962;-70
2022/05/21 04:46:56;;;;;;;;;;;;;;;-140.72;100.00;52733.78;4972761;28;20295;-71
2022/05/21 04:49:21;;;;;;;;;;;;;;;-140.72;100.00;52739.88;4983936;28;19918;-71
2022/05/21 04:51:46;;;;;;;;;;;;;;;-140.72;100.00;52735.81;4983955;28;19925;-70
2022/05/21 04:54:11;;;;;;;;;;;;;;;-140.72;100.00;52703.34;4977830;28;19918;-69
2022/05/21 04:56:36;;;;;;;;;;;;;;;-140.72;100.00;52733.78;4995147;28;19925;-70
2022/05/21 04:59:02;;;;;;;;;;;;;;;-140.72;100.00;52695.25;4972219;28;19918;-71
2022/05/21 05:01:30;;;;;;;;;;;;;;;-140.72;100.00;52743.94;4989302;28;19918;-71
2022/05/21 05:03:55;;;;;;;;;;;;;;;-140.72;100.00;52778.44;4981003;28;20278;-70
2022/05/21 05:06:20;;;;;;;;;;;;;;;-140.72;100.00;52727.72;4983406;28;19917;-69
2022/05/21 05:08:45;;;;;;;;;;;;;;;-140.72;100.00;52683.06;4983486;28;19918;-70
2022/05/21 05:11:11;;;;;;;;;;;;;;;-140.72;100.00;52717.56;4981114;28;19918;-71
2022/05/21 05:13:36;;;;;;;;;;;;;;;-140.72;100.00;52721.63;4983381;28;19918;-71
2022/05/21 05:16:01;;;;;;;;;;;;;;;-140.72;100.00;52731.75;4983149;28;20010;-71
2022/05/21 05:18:30;;;;;;;;;;;;;;;-140.72;100.00;52733.78;4977966;28;19925;-70
2022/05/21 05:20:56;;;;;;;;;;;;;;;-140.72;100.00;52697.28;4997239;28;19910;-70
2022/05/21 05:23:21;;;;;;;;;;;;;;;-140.72;100.00;52739.88;4991796;28;20375;-71
2022/05/21 05:25:46;;;;;;;;;;;;;;;-140.72;100.00;52725.69;4975370;28;19918;-71
2022/05/21 05:28:16;;;;;;;;;;;;;;;-140.72;100.00;52721.63;4975386;28;20259;-76
2022/05/21 05:30:41;;;;;;;;;;;;;;;-140.72;100.00;52725.69;4965749;28;19968;-70
2022/05/21 05:33:06;;;;;;;;;;;;;;;-140.72;100.00;52725.69;4993899;28;19918;-72
2022/05/21 05:35:32;;;;;;;;;;;;;;;-140.72;100.00;52672.91;4974760;28;19922;-69
2022/05/21 05:37:57;;;;;;;;;;;;;;;-140.72;100.00;52711.47;4983949;28;20370;-71
2022/05/21 05:40:22;;;;;;;;;;;;;;;-140.72;100.00;52705.38;4976197;28;19918;-76
2022/05/21 05:42:48;;;;;;;;;;;;;;;-140.72;100.00;52674.94;4979468;28;19922;-71
2022/05/21 05:45:14;;;;;;;;;;;;;;;-140.72;100.00;52660.75;4991505;28;19919;-70
2022/05/21 05:47:39;;;;;;;;;;;;;;;-140.72;100.00;52705.38;4979184;28;19984;-71
2022/05/21 05:50:05;;;;;;;;;;;;;;;-140.72;100.00;52685.09;4974714;28;19953;-71
2022/05/21 05:52:30;;;;;;;;;;;;;;;-140.72;100.00;52685.09;4974628;28;19922;-69
2022/05/21 05:54:55;;;;;;;;;;;;;;;-140.72;100.00;52721.63;4979399;28;20008;-70
2022/05/21 05:57:21;;;;;;;;;;;;;;;-140.72;100.00;52689.16;4976843;28;20432;-69
2022/05/21 05:59:49;;;;;;;;;;;;;;;-140.72;100.00;52666.84;4979502;28;19918;-70
2022/05/21 06:05:02;;;;;;;;;;;;;;;-140.72;100.00;52689.16;4984290;28;19973;-70
2022/05/21 06:07:28;;;;;;;;;;;;;;;-140.72;100.00;52679.00;4980671;28;19918;-71
2022/05/21 06:09:54;;;;;;;;;;;;;;;-140.72;100.00;52676.97;4975002;28;19937;-70
2022/05/21 06:12:19;;;;;;;;;;;;;;;-140.72;100.00;52658.72;4976571;28;20117;-70
2022/05/21 06:14:45;;;;;;;;;;;;;;;-140.72;100.00;52672.91;4974561;28;19918;-71
2022/05/21 06:17:11;;;;;;;;;;;;;;;-140.72;100.00;52670.88;4974908;28;19918;-70
2022/05/21 06:19:37;;;;;;;;;;;;;;;-140.72;100.00;52715.53;4974832;28;19922;-69
2022/05/21 06:22:03;;;;;;;;;;;;;;;-140.72;100.00;52652.63;4976416;28;19922;-70
2022/05/21 06:24:28;;;;;;;;;;;;;;;-140.72;100.00;52648.56;4974958;28;20235;-69
2022/05/21 06:26:54;;;;;;;;;;;;;;;-140.72;100.00;52666.84;4974394;28;19918;-69
2022/05/21 06:29:19;;;;;;;;;;;;;;;-140.72;100.00;52685.09;4975343;28;20358;-70
2022/05/21 06:31:44;;;;;;;;;;;;;;;-140.72;100.00;52689.16;4959689;28;19957;-74
2022/05/21 06:34:10;;;;;;;;;;;;;;;-140.72;100.00;52666.84;4956709;28;19922;-72
2022/05/21 06:36:35;;;;;;;;;;;;;;;-140.72;100.00;52685.09;4975642;28;19926;-71
2022/05/21 06:39:01;;;;;;;;;;;;;;;-140.72;100.00;52650.59;4978186;28;19926;-72
2022/05/21 06:41:29;;;;;;;;;;;;;;;-140.72;100.00;52642.47;4978684;28;19918;-67
2022/05/21 06:43:55;;;;;;;;;;;;;;;-140.72;100.00;52683.06;4957466;28;19941;-68
2022/05/21 06:46:20;;;;;;;;;;;;;;;-140.72;100.00;52703.34;4965781;28;20374;-67
2022/05/21 06:48:45;;;;;;;;;;;;;;;-140.72;100.00;52679.00;4985862;28;20330;-70
2022/05/21 06:51:11;;;;;;;;;;;;;;;-140.72;100.00;52652.63;4989566;28;20494;-69
2022/05/21 06:53:36;;;;;;;;;;;;;;;-140.72;100.00;52622.19;4994207;28;19918;-68
2022/05/21 06:56:05;;;;;;;;;;;;;;;-140.72;100.00;52662.78;4998305;28;19918;-68
2022/05/21 06:58:31;;;;;;;;;;;;;;;-140.72;100.00;52638.41;4998662;28;20004;-68
2022/05/21 07:00:56;;;;;;;;;;;;;;;-140.72;100.00;52628.28;4998026;28;19949;-68
2022/05/21 07:03:21;;;;;;;;;;;;;;;-140.72;100.00;52666.84;4997636;28;19924;-68
2022/05/21 07:08:30;;;;;;;;;;;;;;;-140.72;100.00;52642.47;4997474;28;19941;-68
2022/05/21 07:10:56;;;;;;;;;;;;;;;-140.72;100.00;52664.81;4996874;28;20361;-69
2022/05/21 07:13:22;;;;;;;;;;;;;;;-140.72;100.00;52664.81;4979333;28;19918;-68
2022/05/21 07:15:49;;;;;;;;;;;;;;;-140.72;100.00;52634.38;4996594;28;20029;-68
2022/05/21 07:18:16;;;;;;;;;;;;;;;-140.72;100.00;52642.47;4995790;28;20436;-73
2022/05/21 07:20:41;;;;;;;;;;;;;;;-140.72;100.00;52616.09;4995473;28;19964;-68
2022/05/21 07:23:06;;;;;;;;;;;;;;;-140.72;100.00;52658.72;4979898;28;19992;-70
2022/05/21 07:25:32;;;;;;;;;;;;;;;-140.72;100.00;52626.25;4978310;28;20294;-69
2022/05/21 07:27:57;;;;;;;;;;;;;;;-140.72;100.00;52597.84;4983192;28;19966;-72
2022/05/21 07:30:23;;;;;;;;;;;;;;;-140.72;100.00;52620.16;4977649;28;20005;-69
2022/05/21 07:32:50;;;;;;;;;;;;;;;-140.72;100.00;52587.69;4979408;28;19918;-70
2022/05/21 07:35:16;;;;;;;;;;;;;;;-140.72;100.00;52620.16;4988120;28;19921;-68
2022/05/21 07:37:42;;;;;;;;;;;;;;;-140.72;100.00;52614.06;4992663;28;19962;-68
2022/05/21 07:40:08;;;;;;;;;;;;;;;-140.72;100.00;52605.94;4996864;28;19962;-68
2022/05/21 07:42:34;;;;;;;;;;;;;;;-140.72;100.00;52577.53;4979770;28;19976;-68
2022/05/21 07:45:00;;;;;;;;;;;;;;;-140.72;100.00;52618.13;4996618;28;19969;-67
2022/05/21 07:47:25;;;;;;;;;;;;;;;-140.72;100.00;52610.00;4996480;28;19961;-67
2022/05/21 07:49:56;;;;;;;;;;;;;;;-140.72;100.00;52545.06;4962736;28;19923;-67
2022/05/21 07:52:25;;;;;;;;;;;;;;;-140.72;100.00;52593.78;4996681;28;19918;-67
2022/05/21 07:54:51;;;;;;;;;;;;;;;-140.72;100.00;52571.47;4996382;28;19918;-68
2022/05/21 07:57:16;;;;;;;;;;;;;;;-140.72;100.00;52605.94;4996314;28;19964;-67
2022/05/21 07:59:41;;;;;;;;;;;;;;;-140.72;100.00;52591.75;4996269;28;20270;-68
2022/05/21 08:02:11;;;;;;;;;;;;;;;-140.72;100.00;52573.50;4996363;28;20005;-68
2022/05/21 08:04:37;;;;;;;;;;;;;;;-140.72;100.00;52589.72;4996224;28;20053;-68
2022/05/21 08:07:02;;;;;;;;;;;;;;;-140.72;100.00;52541.03;4996147;28;20389;-68
2022/05/21 08:09:27;;;;;;;;;;;;;;;-140.72;100.00;52559.28;4996157;28;20398;-68
2022/05/21 08:11:52;;;;;;;;;;;;;;;-140.72;100.00;52553.19;4996071;28;19918;-68
2022/05/21 08:14:18;;;;;;;;;;;;;;;-140.72;100.00;52553.19;4996127;28;19926;-68
2022/05/21 08:16:44;;;;;;;;;;;;;;;-140.72;100.00;52545.06;4995935;28;20400;-68
2022/05/21 08:19:09;;;;;;;;;;;;;;;-140.72;100.00;52585.66;4995923;28;19928;-67
2022/05/21 08:21:34;;;;;;;;;;;;;;;-140.72;100.00;52585.66;4978398;28;19924;-67
2022/05/21 08:26:56;;;;;;;;;;;;;;;-140.72;100.00;52559.28;4996086;28;20005;-66
2022/05/21 08:29:22;;;;;;;;;;;;;;;-140.72;100.00;52522.75;4995835;28;20004;-68
2022/05/21 08:31:47;;;;;;;;;;;;;;;-140.72;100.00;52573.50;4995057;28;19977;-67
2022/05/21 08:34:12;;;;;;;;;;;;;;;-140.72;100.00;52508.56;4995512;28;19922;-68
2022/05/21 08:36:38;;;;;;;;;;;;;;;-140.72;100.00;52530.88;4995855;28;19918;-68
2022/05/21 08:39:03;;;;;;;;;;;;;;;-140.72;100.00;52506.53;4995552;28;19918;-68
2022/05/21 08:41:31;;;;;;;;;;;;;;;-140.72;100.00;52498.41;4995493;28;20009;-68
2022/05/21 08:44:04;;;;;;;;;;;;;;;-140.72;100.00;52516.66;4987497;28;19918;-68
2022/05/21 08:46:43;;;;;;;;;;;;;;;-140.72;100.00;52522.75;4995477;28;19944;-68
2022/05/21 08:49:08;;;;;;;;;;;;;;;-140.72;100.00;52465.94;4976080;28;19969;-68
2022/05/21 08:51:37;;;;;;;;;;;;;;;-140.72;100.00;52516.66;4975898;28;19925;-68
2022/05/21 08:54:03;;;;;;;;;;;;;;;-140.72;100.00;52415.22;4975661;28;20016;-68
2022/05/21 08:56:29;;;;;;;;;;;;;;;-140.72;100.00;52470.00;4958465;28;19923;-68
2022/05/21 08:59:03;;;;;;;;;;;;;;;-140.72;100.00;52472.03;4950434;28;19918;-68
2022/05/21 09:01:28;;;;;;;;;;;;;;;-140.72;100.00;52439.56;4975937;28;19925;-69
2022/05/21 09:03:56;;;;;;;;;;;;;;;-140.72;100.00;52451.72;4975510;28;19917;-68
2022/05/21 09:06:31;;;;;;;;;;;;;;;-140.72;100.00;52465.94;4975596;28;19918;-68
2022/05/21 09:09:17;;;;;;;;;;;;;;;-140.72;100.00;52494.34;4967818;28;20393;-67
2022/05/21 09:11:48;;;;;;;;;;;;;;;-140.72;100.00;52415.22;4958748;28;20374;-67
2022/05/21 09:14:15;;;;;;;;;;;;;;;-140.72;100.00;52459.84;4975346;28;19918;-69
2022/05/21 09:16:56;;;;;;;;;;;;;;;-140.72;100.00;52520.72;4957964;28;19973;-68
2022/05/21 09:19:27;;;;;;;;;;;;;;;-140.72;100.00;52516.66;4975433;28;19950;-68
2022/05/21 09:21:55;;;;;;;;;;;;;;;-140.72;100.00;52492.31;4957938;28;20350;-68
2022/05/21 09:24:37;;;;;;;;;;;;;;;-140.72;100.00;52486.22;4958108;28;19918;-68
2022/05/21 09:27:04;;;;;;;;;;;;;;;-140.72;100.00;52463.91;4950899;28;19973;-68
2022/05/21 09:29:34;;;;;;;;;;;;;;;-140.72;100.00;52455.78;4975166;28;19922;-68
2022/05/21 09:32:14;;;;;;;;;;;;;;;-140.72;100.00;52500.44;4967890;28;19964;-68
2022/05/21 09:34:40;;;;;;;;;;;;;;;-140.72;100.00;52443.63;4974966;28;20468;-68
2022/05/21 09:37:13;;;;;;;;;;;;;;;-140.72;100.00;52443.63;4975006;28;19957;-68
2022/05/21 09:39:39;;;;;;;;;;;;;;;-140.72;100.00;52419.28;4975123;28;20285;-68
2022/05/21 09:42:06;;;;;;;;;;;;;;;-140.72;100.00;52407.09;4974926;28;19929;-69
2022/05/21 09:47:22;;;;;;;;;;;;;;;-140.72;100.00;52394.91;4980679;28;19940;-69
2022/05/21 09:50:20;;;;;;;;;;;;;;;-140.72;100.00;52439.56;4994434;28;19945;-69
2022/05/21 09:52:47;;;;;;;;;;;;;;;-140.72;100.00;52413.19;4961592;28;20370;-69
2022/05/21 09:55:23;;;;;;;;;;;;;;;-140.72;100.00;52447.69;4994196;28;20393;-68
2022/05/21 09:57:49;;;;;;;;;;;;;;;-140.72;100.00;52451.72;4994295;28;19922;-68
2022/05/21 10:00:14;;;;;;;;;;;;;;;-140.72;100.00;52451.72;4994186;28;19965;-68
2022/05/21 10:02:47;;;;;;;;;;;;;;;-140.72;100.00;52461.88;4976666;28;19922;-68
2022/05/21 10:05:15;;;;;;;;;;;;;;;-140.72;100.00;52506.53;4994103;28;19917;-68
2022/05/21 10:10:58;;;;;;;;;;;;;;;-140.72;100.00;52480.16;4994531;28;19924;-68
2022/05/21 10:13:24;;;;;;;;;;;;;;;-140.72;100.00;52455.78;4990029;28;19918;-67
2022/05/21 10:15:53;;;;;;;;;;;;;;;-140.72;100.00;52457.81;4994081;28;19921;-68
2022/05/21 10:18:26;;;;;;;;;;;;;;;-140.72;100.00;52492.31;4994149;28;19925;-68
2022/05/21 10:20:54;;;;;;;;;;;;;;;-140.72;100.00;52455.78;4994095;28;19972;-68
2022/05/21 10:23:38;;;;;;;;;;;;;;;-140.72;100.00;52476.09;4993941;28;20431;-67
2022/05/21 10:26:13;;;;;;;;;;;;;;;-140.72;100.00;52470.00;4994017;28;20004;-69
2022/05/21 10:29:01;;;;;;;;;;;;;;;-140.72;100.00;52366.50;4993961;28;19917;-68
2022/05/21 10:31:27;;;;;;;;;;;;;;;-140.72;100.00;52409.13;4992933;28;19924;-68
2022/05/21 10:34:11;;;;;;;;;;;;;;;-140.72;100.00;52291.44;4993898;28;19945;-68
2022/05/21 10:36:43;;;;;;;;;;;;;;;-140.72;100.00;52354.34;4976676;28;19988;-68
2022/05/21 10:39:11;;;;;;;;;;;;;;;-140.72;100.00;52327.97;4993992;28;19913;-68
2022/05/21 10:41:36;;;;;;;;;;;;;;;-140.72;100.00;52368.53;4976428;28;19960;-68
2022/05/21 10:44:09;;;;;;;;;;;;;;;-140.72;100.00;52415.22;4976301;28;19961;-69
2022/05/21 10:46:40;;;;;;;;;;;;;;;-140.72;100.00;52496.38;4993906;28;19918;-69
2022/05/21 10:49:23;;;;;;;;;;;;;;;-140.72;100.00;52465.94;4974392;28;20385;-68
2022/05/21 10:52:11;;;;;;;;;;;;;;;-140.72;100.00;52427.38;4974583;28;19922;-68
2022/05/21 10:54:44;;;;;;;;;;;;;;;-140.72;100.00;52451.72;4974602;28;19954;-70
2022/05/21 10:57:19;;;;;;;;;;;;;;;-140.72;100.00;52476.09;4960713;28;20267;-68
2022/05/21 11:00:00;;;;;;;;;;;;;;;-140.72;100.00;52459.84;4978153;28;19919;-69
2022/05/21 11:02:28;;;;;;;;;;;;;;;-140.72;100.00;52390.84;4960683;28;20365;-69
2022/05/21 11:04:53;;;;;;;;;;;;;;;-140.72;100.00;52427.38;4977852;28;20342;-69
2022/05/21 11:07:37;;;;;;;;;;;;;;;-140.72;100.00;52419.28;4960613;28;19949;-68
2022/05/21 11:10:17;;;;;;;;;;;;;;;-140.72;100.00;52350.28;4970885;28;19919;-67
2022/05/21 11:12:49;;;;;;;;;;;;;;;-140.72;100.00;52340.13;4960536;28;19968;-67
2022/05/21 11:15:29;;;;;;;;;;;;;;;-140.72;100.00;52378.69;4977753;28;20355;-68
2022/05/21 11:17:57;;;;;;;;;;;;;;;-140.72;100.00;52325.94;4977697;28;19949;-68
2022/05/21 11:20:25;;;;;;;;;;;;;;;-140.72;100.00;52327.97;4960187;28;19926;-69
2022/05/21 11:22:53;;;;;;;;;;;;;;;-140.72;100.00;52240.72;4977648;28;19922;-69
2022/05/21 11:25:22;;;;;;;;;;;;;;;-140.72;100.00;52256.94;4960108;28;19941;-68
2022/05/21 11:28:06;;;;;;;;;;;;;;;-140.72;100.00;52246.78;4960104;28;19949;-68
2022/05/21 11:30:31;;;;;;;;;;;;;;;-140.72;100.00;52358.41;4977574;28;19918;-68
2022/05/21 11:38:28;;;;;;;;;;;;;;;-140.72;100.00;52271.16;4977676;28;20333;-67
2022/05/21 11:41:24;;;;;;;;;;;;;;;-140.72;100.00;52236.66;4959792;28;19919;-67
2022/05/21 11:43:54;;;;;;;;;;;;;;;-140.72;100.00;52265.06;4976868;28;19918;-68
2022/05/21 11:46:26;;;;;;;;;;;;;;;-140.72;100.00;52204.19;4977108;28;20009;-68
2022/05/21 11:48:51;;;;;;;;;;;;;;;-140.72;100.00;52214.34;4977431;28;19918;-68
2022/05/21 11:51:16;;;;;;;;;;;;;;;-140.72;100.00;52323.91;4996497;28;20287;-69
2022/05/21 11:53:42;;;;;;;;;;;;;;;-140.72;100.00;52218.38;4996701;28;19973;-68
2022/05/21 11:56:10;;;;;;;;;;;;;;;-140.72;100.00;52254.91;4978971;28;19957;-69
2022/05/21 11:58:54;;;;;;;;;;;;;;;-140.72;100.00;52224.47;4996529;28;19956;-66
2022/05/21 12:01:48;;;;;;;;;;;;;;;-140.72;100.00;52220.41;4996359;28;20004;-67
2022/05/21 12:04:24;;;;;;;;;;;;;;;-140.72;100.00;52315.78;4965189;28;19925;-67
2022/05/21 12:06:50;;;;;;;;;;;;;;;-140.72;100.00;52273.19;4995348;28;19960;-68
2022/05/21 12:09:27;;;;;;;;;;;;;;;-140.72;100.00;52429.41;4996208;28;19921;-68
2022/05/21 12:12:12;;;;;;;;;;;;;;;-140.72;100.00;52175.78;4978919;28;19918;-68
2022/05/21 12:14:57;;;;;;;;;;;;;;;-140.72;100.00;52252.88;4995983;28;19918;-68
2022/05/21 12:17:45;;;;;;;;;;;;;;;-140.72;100.00;52319.84;4996353;28;19925;-69
2022/05/21 12:20:12;;;;;;;;;;;;;;;-140.72;100.00;52149.41;4996130;28;20344;-68
2022/05/21 12:22:39;;;;;;;;;;;;;;;-140.72;100.00;52104.75;4995916;28;19925;-67
2022/05/21 12:25:08;;;;;;;;;;;;;;;-140.72;100.00;52100.72;4995792;28;19929;-67
2022/05/21 12:27:46;;;;;;;;;;;;;;;-140.72;100.00;52179.84;4995865;28;19964;-69
2022/05/21 12:30:18;;;;;;;;;;;;;;;-140.72;100.00;52334.03;4995744;28;20301;-67
2022/05/21 12:32:45;;;;;;;;;;;;;;;-140.72;100.00;52226.50;4995653;28;19921;-68
2022/05/21 12:35:13;;;;;;;;;;;;;;;-140.72;100.00;52131.16;4974740;28;20397;-67
2022/05/21 12:37:43;;;;;;;;;;;;;;;-140.72;100.00;52267.09;4976222;28;19918;-68
2022/05/21 12:40:12;;;;;;;;;;;;;;;-140.72;100.00;52234.63;4995526;28;20009;-68
2022/05/21 12:42:39;;;;;;;;;;;;;;;-140.72;100.00;52311.72;4995483;28;19917;-68
2022/05/21 12:45:05;;;;;;;;;;;;;;;-140.72;100.00;52125.06;4995361;28;19917;-68
2022/05/21 12:47:30;;;;;;;;;;;;;;;-140.72;100.00;52159.56;4995377;28;19996;-69
2022/05/21 12:49:56;;;;;;;;;;;;;;;-140.72;100.00;52092.59;4995380;28;19918;-68
2022/05/21 12:52:22;;;;;;;;;;;;;;;-140.72;100.00;52080.41;4995499;28;20336;-68
2022/05/21 12:54:48;;;;;;;;;;;;;;;-140.72;100.00;52049.97;4977823;28;19972;-68